Terminal Aerodrome Forecast
Issued by NWS

Current Version | Previous Version | Graphics & Text | Print | Product List | Glossary On
Versions: 1 2 3 4 5 6 7 8 9 10 11 12 13 14 15 16 17 18 19 20 21 22 23 24 25
000
FTUS41 KRLX 111000 AAB
TAFCKB
TAF AMD
KCKB 111024Z 1110/1206 00000KT 6SM BR SKC
      TEMPO 1110/1112 1SM BR
     FM111200 00000KT 3SM BR SKC
     FM111300 00000KT P6SM SKC
     FM111700 00000KT P6SM SCT050
     FM120500 00000KT 5SM BR FEW250=

USA.gov is the U.S. government's official web portal to all federal, state and local government web resources and services.